Impacts TAF Board
For situational awareness. Not to be used for flight planning purposes.
IDs:

KEGE - Eagle Cnty Rgnl, CO, US

Issued at 1724 UTC 17 Nov 2019
Updated at 2006 UTC 17 Nov 2019
Potential Impact None Slight Moderate High
Time1956Z 17/21Z 17/22Z 17/23Z 18/00Z 18/01Z 18/02Z 18/03Z 18/04Z 18/05Z 18/06Z 18/07Z 18/08Z 18/09Z>>
Type OBS PRVL PRVL PRVL PRVL PRVL PRVL PRVL PRVL PRVL PRVL PRVL PRVL PRVL
VIS 10 >6 >6 >6 >6 >6 >6 >6 >6 >6 >6 >6 >6 >6
CIG -- -- -- -- -- -- -- -- -- -- -- -- -- --
Cover CLR SCT SCT SCT SCT SCT SCT SCT SCT SCT SCT SCT SCT SCT
FltCat VFR VFR VFR VFR VFR VFR VFR VFR VFR VFR VFR VFR VFR VFR
WX -- -- -- -- -- -- -- -- -- -- -- -- -- --
WDir VRB 240 240 240 240 240 240 VRB VRB VRB VRB VRB VRB VRB
WSpd 0 7 7 7 7 7 7 4 4 4 4 4 4 4
WGst -- -- -- -- -- -- -- -- -- -- -- -- -- --
Raw TAF
KEGE 171724Z 1718/1818 00000KT P6SM FEW250
  FM172000 24007KT P6SM FEW150 SCT250
  FM180300 VRB04KT P6SM FEW150 SCT250


Raw METAR
KEGE 171956Z 00000KT 10SM CLR 09/M07 A3027 RMK AO2 SLP263 T00941067
KEGE 171856Z 00000KT 10SM CLR 07/M06 A3031 RMK AO2 SLP281 T00721061
KEGE 171756Z 25003KT 10SM CLR 04/M05 A3035 RMK AO2 SLP296 T00391050 10039 21067 58010

METAR Board
Radar Display
Forecast Discussion
For situational awareness. Not to be used for flight planning purposes.